Terminal Aerodrome Forecast
Issued by NWS Sterling, VA

Home | Current Version | Previous Version | Text Only | Print | Product List | Glossary On
Versions: 1 2 3 4 5 6 7 8 9 10 11 12 13 14 15 16 17 18 19 20 21
798
FTUS41 KLWX 102341 RRA
TAFBWI
TAF
KBWI 102341Z 1100/1206 30006KT P6SM FEW050
     FM110700 29004KT P6SM BKN100
     FM111100 13004KT P6SM OVC050
     FM111700 17007KT P6SM BKN090
     FM120200 17008KT P6SM BKN250=

USA.gov is the U.S. government's official web portal to all federal, state and local government web resources and services.